Tideekspress — LCBK — position and weather

sailwx.info

Track history (hours):
 
Tides and Currents Weather Stations Pressure Air Temp Water Temp Dewpoint Dewpoint Depression Visibility Wind Speed Wind Dir Waves Ship Positions

Tideekspress

Last reported at 2014-May-08 14:16 UTC. Time now 2014-Jul-31 15:35 UTC.
Position N 62°26' E 006°03'.
Warning: this ship's position is months out of date.

Length 33 m; draft 2 m.

Type: High speed craft. MMSI: 258416000.

Date/timePositionNaut miles runAvg speedWind from/ knotsBaromVisibWave heightAir tempDewpointWater temp
2014-May-08 14:16N 62°26' E 006°03'4 5.2
2014-May-08 13:33N 62°28' E 006°09'3 0.4
2014-May-08 06:17N 62°27' E 006°04'1 0.4
2014-May-08 05:04N 62°27' E 006°03'3 0.5
2014-May-07 22:09N 62°28' E 006°09'0 0.0
2014-May-07 04:31N 62°28' E 006°09'4 3.8
2014-May-07 03:28N 62°26' E 006°03'4 0.7
2014-May-06 21:34N 62°29' E 006°07'1 1.2
2014-May-06 20:30N 62°28' E 006°09'0 0.1
2014-May-06 19:32N 62°28' E 006°09'0 0.1
2014-May-06 18:33N 62°28' E 006°09'0 0.1
2014-May-06 17:27N 62°28' E 006°09'0 0.1
2014-May-06 16:34N 62°28' E 006°09'0 0.4
2014-May-06 15:33N 62°29' E 006°09'0 0.3
2014-May-06 14:33N 62°29' E 006°09'1 0.6
2014-May-06 13:33N 62°29' E 006°09'4 3.3
2014-May-06 12:20N 62°26' E 006°03'2 2.0
2014-May-06 11:16N 62°28' E 006°05'2 2.3
2014-May-06 10:20N 62°26' E 006°03'0 0.0
2014-May-06 09:19N 62°26' E 006°03'0 0.0
2014-May-06 08:21N 62°26' E 006°03'3 2.4
2014-May-06 07:18N 62°28' E 006°05'3 2.7
2014-May-06 06:20N 62°26' E 006°03'4 2.2
2014-May-06 04:33N 62°28' E 006°09'3 2.4
2014-May-06 03:25N 62°27' E 006°04'3 0.5
2014-May-05 21:33N 62°30' E 006°08'1 1.2
2014-May-05 20:33N 62°29' E 006°09'0 0.2
2014-May-05 19:27N 62°28' E 006°09'0 0.2
2014-May-05 18:33N 62°29' E 006°09'0 0.0
2014-May-05 16:22N 62°29' E 006°09'0 0.3
2014-May-05 15:33N 62°29' E 006°09'0 0.3
2014-May-05 14:33N 62°29' E 006°08'1 0.5
2014-May-05 13:33N 62°29' E 006°09'2 1.6
2014-May-05 12:16N 62°28' E 006°05'2 2.3
2014-May-05 11:20N 62°26' E 006°03'1 1.4
2014-May-05 10:18N 62°27' E 006°04'0 0.0
2014-May-05 09:17N 62°27' E 006°04'0 0.2
2014-May-05 08:16N 62°27' E 006°04'0 0.3
2014-May-05 07:20N 62°27' E 006°04'0 0.3
2014-May-05 06:18N 62°27' E 006°04'0 0.2
2014-May-05 05:03N 62°27' E 006°04'3 5.4
2014-May-05 04:33N 62°28' E 006°09'3 2.3
2014-May-05 03:25N 62°27' E 006°04'0 0.0
2014-May-04 22:27N 62°27' E 006°04'2 0.3
2014-May-04 17:32N 62°28' E 006°07'0 0.0
2014-May-04 15:08N 62°28' E 006°07'0 0.0
2014-May-04 14:26N 62°28' E 006°07'0 0.0
2014-May-04 13:26N 62°28' E 006°07'0 0.0
2014-May-04 12:32N 62°28' E 006°07'0 0.0
2014-May-04 11:32N 62°28' E 006°07'0 0.0
2014-May-04 07:20N 62°28' E 006°07'0 0.0
2014-May-04 06:32N 62°28' E 006°07'0 0.0
2014-May-04 05:15N 62°28' E 006°07'0 0.0
2014-May-04 04:32N 62°28' E 006°07'0 0.0
2014-May-04 03:27N 62°28' E 006°07'0 0.0
2014-May-04 02:20N 62°28' E 006°07'0 0.0
2014-May-04 00:32N 62°28' E 006°07'0 0.0
2014-May-03 23:32N 62°28' E 006°07'0 0.0
2014-May-03 22:26N 62°28' E 006°07'0 0.0
2014-May-03 21:32N 62°28' E 006°07'0 0.0
2014-May-03 20:32N 62°28' E 006°07'0 0.0
2014-May-03 18:20N 62°28' E 006°07'0 0.0
2014-May-03 16:32N 62°28' E 006°07'0 0.0
2014-May-03 14:20N 62°28' E 006°07'0 0.0
2014-May-03 13:32N 62°28' E 006°07'0 0.0
2014-May-03 12:32N 62°28' E 006°07'0 0.0
2014-May-03 11:26N 62°28' E 006°07'0 0.0
2014-May-03 10:32N 62°28' E 006°07'0 0.0
2014-May-03 09:33N 62°28' E 006°07'0 0.0
2014-May-03 08:32N 62°28' E 006°07'0 0.0
2014-May-03 05:20N 62°28' E 006°07'0 0.0
2014-May-03 04:26N 62°28' E 006°07'0 0.0
2014-May-03 03:32N 62°28' E 006°07'0 0.0
2014-May-03 02:32N 62°28' E 006°07'0 0.0
2014-May-03 01:32N 62°28' E 006°07'0 0.0
2014-May-03 00:32N 62°28' E 006°07'0 0.0
2014-May-02 23:32N 62°28' E 006°07'0 0.0
2014-May-02 22:32N 62°28' E 006°07'0 0.0
2014-May-02 21:08N 62°28' E 006°07'0 0.0
2014-May-02 20:20N 62°28' E 006°07'0 0.0
2014-May-02 19:20N 62°28' E 006°07'0 0.0
2014-May-02 18:32N 62°28' E 006°07'0 0.0
2014-May-02 14:14N 62°28' E 006°07'0 0.0
2014-May-02 13:14N 62°28' E 006°07'0 0.0
2014-May-02 12:21N 62°28' E 006°07'0 0.0
2014-May-02 08:20N 62°28' E 006°07'0 0.0
2014-May-02 07:26N 62°28' E 006°07'0 0.0
2014-May-02 06:32N 62°28' E 006°07'0 0.0
2014-May-02 05:14N 62°28' E 006°07'0 0.0
2014-May-02 03:26N 62°28' E 006°07'0 0.0
2014-May-02 02:26N 62°28' E 006°07'0 0.0
2014-May-02 01:26N 62°28' E 006°07'0 0.0
2014-May-02 00:32N 62°28' E 006°07'0 0.0
2014-May-01 22:32N 62°28' E 006°07'0 0.0
2014-May-01 21:32N 62°28' E 006°07'0 0.0
2014-May-01 20:08N 62°28' E 006°07'0 0.0
2014-May-01 19:08N 62°28' E 006°07'0 0.0
2014-May-01 18:26N 62°28' E 006°07'0 0.0
2014-May-01 16:26N 62°28' E 006°07'0 0.0
2014-May-01 14:20N 62°28' E 006°07'0 0.0
2014-May-01 13:32N 62°28' E 006°07'0 0.0
2014-May-01 12:32N 62°28' E 006°07'0 0.0
2014-May-01 10:32N 62°28' E 006°07'0 0.0
2014-May-01 09:32N 62°28' E 006°07'0 0.0
2014-May-01 08:26N 62°28' E 006°07'0 0.0
2014-May-01 07:32N 62°28' E 006°07'0 0.0
2014-May-01 01:32N 62°28' E 006°07'0 0.0
2014-May-01 00:32N 62°28' E 006°07'0 0.0
2014-Apr-30 23:32N 62°28' E 006°07'0 0.0
2014-Apr-30 22:08N 62°28' E 006°07'0 0.0
2014-Apr-30 21:26N 62°28' E 006°07'0 0.0
2014-Apr-30 20:26N 62°28' E 006°07'0 0.0
2014-Apr-30 19:32N 62°28' E 006°07'0 0.0
2014-Apr-30 18:32N 62°28' E 006°07'0 0.0
2014-Apr-30 17:14N 62°28' E 006°07'0 0.0
2014-Apr-30 16:26N 62°28' E 006°07'0 0.0
2014-Apr-30 15:32N 62°28' E 006°07'0 0.0
2014-Apr-30 13:32N 62°28' E 006°07'0 0.0
2014-Apr-30 12:26N 62°28' E 006°07'0 0.0
2014-Apr-30 11:32N 62°28' E 006°07'0 0.0
2014-Apr-30 10:32N 62°28' E 006°07'0 0.0
2014-Apr-30 09:32N 62°28' E 006°07'0 0.0
2014-Apr-30 08:20N 62°28' E 006°07'0 0.0
2014-Apr-30 07:32N 62°28' E 006°07'3 1.2
2014-Apr-30 05:07N 62°26' E 006°03'4 6.1
2014-Apr-30 04:31N 62°28' E 006°09'0 0.0
2014-Apr-29 17:31N 62°28' E 006°09'0 0.0
2014-Apr-29 15:32N 62°28' E 006°09'0 0.2
2014-Apr-29 14:33N 62°29' E 006°09'0 0.3
2014-Apr-29 13:33N 62°29' E 006°08'1 0.2
2014-Apr-29 06:15N 62°28' E 006°05'3 2.3
2014-Apr-29 05:08N 62°26' E 006°03'4 0.6
2014-Apr-28 23:06N 62°28' E 006°09'2 0.7
2014-Apr-28 20:17N 62°28' E 006°05'2 2.7
2014-Apr-28 19:33N 62°30' E 006°08'1 1.4
2014-Apr-28 18:32N 62°28' E 006°09'2 1.9
2014-Apr-28 17:33N 62°28' E 006°05'1 0.9
2014-Apr-28 16:34N 62°29' E 006°07'0 0.5
2014-Apr-28 15:33N 62°28' E 006°06'1 1.2
2014-Apr-28 14:32N 62°29' E 006°09'  
Track history (hours):
 
Tides and Currents Weather Stations Pressure Air Temp Water Temp Dewpoint Dewpoint Depression Visibility Wind Speed Wind Dir Waves Ship Positions

Tideekspress

Last reported at 2014-May-08 14:16 UTC. Time now 2014-Jul-31 15:35 UTC.
Position N 62°26' E 006°03'.
Warning: this ship's position is months out of date.

Length 33 m; draft 2 m.

Type: High speed craft. MMSI: 258416000.

Date/timePositionNaut miles runAvg speedWind from/ knotsBaromVisibWave heightAir tempDewpointWater temp
2014-May-08 14:16N 62°26' E 006°03'4 5.2
2014-May-08 13:33N 62°28' E 006°09'3 0.4
2014-May-08 06:17N 62°27' E 006°04'1 0.4
2014-May-08 05:04N 62°27' E 006°03'3 0.5
2014-May-07 22:09N 62°28' E 006°09'0 0.0
2014-May-07 04:31N 62°28' E 006°09'4 3.8
2014-May-07 03:28N 62°26' E 006°03'4 0.7
2014-May-06 21:34N 62°29' E 006°07'1 1.2
2014-May-06 20:30N 62°28' E 006°09'0 0.1
2014-May-06 19:32N 62°28' E 006°09'0 0.1
2014-May-06 18:33N 62°28' E 006°09'0 0.1
2014-May-06 17:27N 62°28' E 006°09'0 0.1
2014-May-06 16:34N 62°28' E 006°09'0 0.4
2014-May-06 15:33N 62°29' E 006°09'0 0.3
2014-May-06 14:33N 62°29' E 006°09'1 0.6
2014-May-06 13:33N 62°29' E 006°09'4 3.3
2014-May-06 12:20N 62°26' E 006°03'2 2.0
2014-May-06 11:16N 62°28' E 006°05'2 2.3
2014-May-06 10:20N 62°26' E 006°03'0 0.0
2014-May-06 09:19N 62°26' E 006°03'0 0.0
2014-May-06 08:21N 62°26' E 006°03'3 2.4
2014-May-06 07:18N 62°28' E 006°05'3 2.7
2014-May-06 06:20N 62°26' E 006°03'4 2.2
2014-May-06 04:33N 62°28' E 006°09'3 2.4
2014-May-06 03:25N 62°27' E 006°04'3 0.5
2014-May-05 21:33N 62°30' E 006°08'1 1.2
2014-May-05 20:33N 62°29' E 006°09'0 0.2
2014-May-05 19:27N 62°28' E 006°09'0 0.2
2014-May-05 18:33N 62°29' E 006°09'0 0.0
2014-May-05 16:22N 62°29' E 006°09'0 0.3
2014-May-05 15:33N 62°29' E 006°09'0 0.3
2014-May-05 14:33N 62°29' E 006°08'1 0.5
2014-May-05 13:33N 62°29' E 006°09'2 1.6
2014-May-05 12:16N 62°28' E 006°05'2 2.3
2014-May-05 11:20N 62°26' E 006°03'1 1.4
2014-May-05 10:18N 62°27' E 006°04'0 0.0
2014-May-05 09:17N 62°27' E 006°04'0 0.2
2014-May-05 08:16N 62°27' E 006°04'0 0.3
2014-May-05 07:20N 62°27' E 006°04'0 0.3
2014-May-05 06:18N 62°27' E 006°04'0 0.2
2014-May-05 05:03N 62°27' E 006°04'3 5.4
2014-May-05 04:33N 62°28' E 006°09'3 2.3
2014-May-05 03:25N 62°27' E 006°04'0 0.0
2014-May-04 22:27N 62°27' E 006°04'2 0.3
2014-May-04 17:32N 62°28' E 006°07'0 0.0
2014-May-04 15:08N 62°28' E 006°07'0 0.0
2014-May-04 14:26N 62°28' E 006°07'0 0.0
2014-May-04 13:26N 62°28' E 006°07'0 0.0
2014-May-04 12:32N 62°28' E 006°07'0 0.0
2014-May-04 11:32N 62°28' E 006°07'0 0.0
2014-May-04 07:20N 62°28' E 006°07'0 0.0
2014-May-04 06:32N 62°28' E 006°07'0 0.0
2014-May-04 05:15N 62°28' E 006°07'0 0.0
2014-May-04 04:32N 62°28' E 006°07'0 0.0
2014-May-04 03:27N 62°28' E 006°07'0 0.0
2014-May-04 02:20N 62°28' E 006°07'0 0.0
2014-May-04 00:32N 62°28' E 006°07'0 0.0
2014-May-03 23:32N 62°28' E 006°07'0 0.0
2014-May-03 22:26N 62°28' E 006°07'0 0.0
2014-May-03 21:32N 62°28' E 006°07'0 0.0
2014-May-03 20:32N 62°28' E 006°07'0 0.0
2014-May-03 18:20N 62°28' E 006°07'0 0.0
2014-May-03 16:32N 62°28' E 006°07'0 0.0
2014-May-03 14:20N 62°28' E 006°07'0 0.0
2014-May-03 13:32N 62°28' E 006°07'0 0.0
2014-May-03 12:32N 62°28' E 006°07'0 0.0
2014-May-03 11:26N 62°28' E 006°07'0 0.0
2014-May-03 10:32N 62°28' E 006°07'0 0.0
2014-May-03 09:33N 62°28' E 006°07'0 0.0
2014-May-03 08:32N 62°28' E 006°07'0 0.0
2014-May-03 05:20N 62°28' E 006°07'0 0.0
2014-May-03 04:26N 62°28' E 006°07'0 0.0
2014-May-03 03:32N 62°28' E 006°07'0 0.0
2014-May-03 02:32N 62°28' E 006°07'0 0.0
2014-May-03 01:32N 62°28' E 006°07'0 0.0
2014-May-03 00:32N 62°28' E 006°07'0 0.0
2014-May-02 23:32N 62°28' E 006°07'0 0.0
2014-May-02 22:32N 62°28' E 006°07'0 0.0
2014-May-02 21:08N 62°28' E 006°07'0 0.0
2014-May-02 20:20N 62°28' E 006°07'0 0.0
2014-May-02 19:20N 62°28' E 006°07'0 0.0
2014-May-02 18:32N 62°28' E 006°07'0 0.0
2014-May-02 14:14N 62°28' E 006°07'0 0.0
2014-May-02 13:14N 62°28' E 006°07'0 0.0
2014-May-02 12:21N 62°28' E 006°07'0 0.0
2014-May-02 08:20N 62°28' E 006°07'0 0.0
2014-May-02 07:26N 62°28' E 006°07'0 0.0
2014-May-02 06:32N 62°28' E 006°07'0 0.0
2014-May-02 05:14N 62°28' E 006°07'0 0.0
2014-May-02 03:26N 62°28' E 006°07'0 0.0
2014-May-02 02:26N 62°28' E 006°07'0 0.0
2014-May-02 01:26N 62°28' E 006°07'0 0.0
2014-May-02 00:32N 62°28' E 006°07'0 0.0
2014-May-01 22:32N 62°28' E 006°07'0 0.0
2014-May-01 21:32N 62°28' E 006°07'0 0.0
2014-May-01 20:08N 62°28' E 006°07'0 0.0
2014-May-01 19:08N 62°28' E 006°07'0 0.0
2014-May-01 18:26N 62°28' E 006°07'0 0.0
2014-May-01 16:26N 62°28' E 006°07'0 0.0
2014-May-01 14:20N 62°28' E 006°07'0 0.0
2014-May-01 13:32N 62°28' E 006°07'0 0.0
2014-May-01 12:32N 62°28' E 006°07'0 0.0
2014-May-01 10:32N 62°28' E 006°07'0 0.0
2014-May-01 09:32N 62°28' E 006°07'0 0.0
2014-May-01 08:26N 62°28' E 006°07'0 0.0
2014-May-01 07:32N 62°28' E 006°07'0 0.0
2014-May-01 01:32N 62°28' E 006°07'0 0.0
2014-May-01 00:32N 62°28' E 006°07'0 0.0
2014-Apr-30 23:32N 62°28' E 006°07'0 0.0
2014-Apr-30 22:08N 62°28' E 006°07'0 0.0
2014-Apr-30 21:26N 62°28' E 006°07'0 0.0
2014-Apr-30 20:26N 62°28' E 006°07'0 0.0
2014-Apr-30 19:32N 62°28' E 006°07'0 0.0
2014-Apr-30 18:32N 62°28' E 006°07'0 0.0
2014-Apr-30 17:14N 62°28' E 006°07'0 0.0
2014-Apr-30 16:26N 62°28' E 006°07'0 0.0
2014-Apr-30 15:32N 62°28' E 006°07'0 0.0
2014-Apr-30 13:32N 62°28' E 006°07'0 0.0
2014-Apr-30 12:26N 62°28' E 006°07'0 0.0
2014-Apr-30 11:32N 62°28' E 006°07'0 0.0
2014-Apr-30 10:32N 62°28' E 006°07'0 0.0
2014-Apr-30 09:32N 62°28' E 006°07'0 0.0
2014-Apr-30 08:20N 62°28' E 006°07'0 0.0
2014-Apr-30 07:32N 62°28' E 006°07'3 1.2
2014-Apr-30 05:07N 62°26' E 006°03'4 6.1
2014-Apr-30 04:31N 62°28' E 006°09'0 0.0
2014-Apr-29 17:31N 62°28' E 006°09'0 0.0
2014-Apr-29 15:32N 62°28' E 006°09'0 0.2
2014-Apr-29 14:33N 62°29' E 006°09'0 0.3
2014-Apr-29 13:33N 62°29' E 006°08'1 0.2
2014-Apr-29 06:15N 62°28' E 006°05'3 2.3
2014-Apr-29 05:08N 62°26' E 006°03'4 0.6
2014-Apr-28 23:06N 62°28' E 006°09'2 0.7
2014-Apr-28 20:17N 62°28' E 006°05'2 2.7
2014-Apr-28 19:33N 62°30' E 006°08'1 1.4
2014-Apr-28 18:32N 62°28' E 006°09'2 1.9
2014-Apr-28 17:33N 62°28' E 006°05'1 0.9
2014-Apr-28 16:34N 62°29' E 006°07'0 0.5
2014-Apr-28 15:33N 62°28' E 006°06'1 1.2
2014-Apr-28 14:32N 62°29' E 006°09'  

Dump ship's entire track history